createdAt,value
2018-05-09T00:00:29.492Z,45.85
2018-05-09T00:02:57.658Z,45.38
2018-05-09T00:05:25.824Z,45.57
2018-05-09T00:07:54.003Z,45.06
2018-05-09T00:10:22.163Z,45.56
2018-05-09T00:12:50.358Z,45.69
2018-05-09T00:15:18.517Z,46.04
2018-05-09T00:17:46.677Z,46.09
2018-05-09T00:20:14.863Z,46.16
2018-05-09T00:22:43.009Z,46.40
2018-05-09T00:25:11.201Z,46.66
2018-05-09T00:27:39.378Z,46.84
2018-05-09T00:30:07.532Z,47.09
2018-05-09T00:32:35.717Z,46.94
2018-05-09T00:35:03.903Z,46.95
2018-05-09T00:37:32.084Z,46.85
2018-05-09T00:40:00.268Z,46.89
2018-05-09T00:42:28.430Z,47.19
2018-05-09T00:44:56.606Z,46.80
2018-05-09T00:47:24.800Z,46.79
2018-05-09T00:49:52.979Z,46.85
2018-05-09T00:52:21.171Z,47.35
2018-05-09T00:54:49.358Z,47.36
2018-05-09T00:57:17.561Z,47.61
2018-05-09T00:59:45.713Z,47.76
2018-05-09T01:02:13.885Z,48.07
2018-05-09T01:04:42.068Z,48.43
2018-05-09T01:07:10.246Z,48.86
2018-05-09T01:09:38.413Z,48.84
2018-05-09T01:12:06.592Z,48.86
2018-05-09T01:14:34.770Z,49.21
2018-05-09T01:17:02.965Z,49.32
2018-05-09T01:19:31.160Z,49.77
2018-05-09T01:21:59.339Z,50.14
2018-05-09T01:24:27.500Z,50.24
2018-05-09T01:26:55.654Z,50.44
2018-05-09T01:29:23.839Z,50.75
2018-05-09T01:31:52.013Z,49.46
2018-05-09T01:34:20.196Z,49.51
2018-05-09T01:36:48.387Z,50.04
2018-05-09T01:39:16.559Z,49.90
2018-05-09T01:41:44.728Z,50.03
2018-05-09T01:44:12.906Z,50.30
2018-05-09T01:46:41.061Z,50.31
2018-05-09T01:49:09.234Z,50.46
2018-05-09T01:51:37.441Z,50.44
2018-05-09T01:54:05.623Z,50.76
2018-05-09T01:56:33.800Z,50.85
2018-05-09T01:59:01.968Z,50.67
2018-05-09T02:01:30.153Z,50.98
2018-05-09T02:03:58.328Z,51.09
2018-05-09T02:06:26.487Z,51.29
2018-05-09T02:08:54.648Z,51.33
2018-05-09T02:11:22.821Z,51.44
2018-05-09T02:13:51.019Z,51.63
2018-05-09T02:16:19.180Z,51.50
2018-05-09T02:18:47.386Z,51.81
2018-05-09T02:21:15.623Z,52.03
2018-05-09T02:23:43.782Z,51.66
2018-05-09T02:26:11.904Z,51.75
2018-05-09T02:28:40.078Z,51.65
2018-05-09T02:31:08.333Z,51.37
2018-05-09T02:33:36.415Z,51.51
2018-05-09T02:36:04.657Z,51.44
2018-05-09T02:38:32.813Z,51.15
2018-05-09T02:41:01.003Z,50.85
2018-05-09T02:43:29.170Z,51.25
2018-05-09T02:45:57.352Z,50.71
2018-05-09T02:48:25.516Z,51.08
2018-05-09T02:50:53.711Z,51.80
2018-05-09T02:53:21.911Z,52.03
2018-05-09T02:55:50.063Z,51.65
2018-05-09T02:58:18.237Z,51.96
2018-05-09T03:00:46.405Z,52.23
2018-05-09T03:03:14.596Z,52.53
2018-05-09T03:05:42.775Z,52.92
2018-05-09T03:08:10.931Z,53.14
2018-05-09T03:10:39.089Z,53.31
2018-05-09T03:13:07.306Z,53.04
2018-05-09T03:15:35.448Z,53.20
2018-05-09T03:18:03.601Z,53.14
2018-05-09T03:20:31.781Z,53.34
2018-05-09T03:22:59.964Z,53.06
2018-05-09T03:25:28.148Z,53.05
2018-05-09T03:27:56.300Z,53.58
2018-05-09T03:30:24.489Z,53.91
2018-05-09T03:32:52.662Z,54.03
2018-05-09T03:35:20.848Z,53.87
2018-05-09T03:37:48.998Z,53.51
2018-05-09T03:40:17.171Z,53.37
2018-05-09T03:42:45.358Z,53.39
2018-05-09T03:45:13.556Z,53.69
2018-05-09T03:47:41.719Z,53.81
2018-05-09T03:50:09.893Z,53.94
2018-05-09T03:52:38.059Z,54.16
2018-05-09T03:55:06.241Z,54.42
2018-05-09T03:57:34.427Z,54.40
2018-05-09T04:00:04.628Z,54.73
2018-05-09T04:03:09.563Z,54.86
2018-05-09T04:06:14.118Z,55.23
2018-05-09T04:09:35.936Z,55.02
2018-05-09T04:12:04.039Z,54.81
2018-05-09T04:14:32.211Z,54.75
2018-05-09T04:17:00.431Z,54.65
2018-05-09T04:19:28.616Z,54.52
2018-05-09T04:21:56.766Z,54.32
2018-05-09T04:24:25.009Z,54.49
2018-05-09T04:26:53.210Z,54.87
2018-05-09T04:29:21.412Z,54.95
2018-05-09T04:31:49.596Z,54.69
2018-05-09T04:34:17.773Z,54.89
2018-05-09T04:36:45.938Z,54.81
2018-05-09T04:39:14.157Z,54.74
2018-05-09T04:41:42.321Z,54.23
2018-05-09T04:44:10.466Z,54.01
2018-05-09T04:46:38.678Z,53.95
2018-05-09T04:49:08.430Z,54.17
2018-05-09T04:51:36.609Z,54.25
2018-05-09T04:54:04.799Z,54.03
2018-05-09T04:56:32.959Z,54.13
2018-05-09T04:59:01.158Z,54.74
2018-05-09T05:01:29.357Z,54.70
2018-05-09T05:03:57.531Z,54.63
2018-05-09T05:06:25.724Z,55.04
2018-05-09T05:08:53.935Z,55.08
2018-05-09T05:11:22.092Z,55.08
2018-05-09T05:13:50.287Z,55.25
2018-05-09T05:16:18.468Z,54.94
2018-05-09T05:18:46.675Z,55.23
2018-05-09T05:21:14.805Z,55.34
2018-05-09T05:23:42.979Z,55.47
2018-05-09T05:26:11.147Z,55.85
2018-05-09T05:28:39.371Z,55.84
2018-05-09T05:31:07.547Z,56.38
2018-05-09T05:33:35.735Z,55.97
2018-05-09T05:36:03.934Z,55.53
2018-05-09T05:38:32.152Z,55.97
2018-05-09T05:41:00.334Z,55.74
2018-05-09T05:43:28.513Z,56.00
2018-05-09T05:45:56.688Z,56.21
2018-05-09T05:48:28.287Z,56.31
2018-05-09T05:50:56.478Z,56.00
2018-05-09T05:53:24.675Z,56.26
2018-05-09T05:55:52.874Z,55.31
2018-05-09T05:58:21.049Z,54.40
2018-05-09T06:00:49.223Z,53.67
2018-05-09T06:03:17.583Z,53.87
2018-05-09T06:05:45.747Z,54.31
2018-05-09T06:08:17.291Z,53.53
2018-05-09T06:10:45.405Z,52.90
2018-05-09T06:13:13.607Z,53.41
2018-05-09T06:15:41.767Z,50.82
2018-05-09T06:18:09.977Z,43.93
2018-05-09T06:20:38.167Z,37.77
2018-05-09T06:23:06.375Z,34.80
2018-05-09T06:25:34.567Z,33.98
2018-05-09T06:28:02.722Z,31.90
2018-05-09T06:30:30.888Z,29.74
2018-05-09T06:32:59.075Z,26.46
2018-05-09T06:35:27.254Z,23.49
2018-05-09T06:37:55.400Z,22.75
2018-05-09T06:40:23.589Z,21.35
2018-05-09T06:42:51.763Z,20.51
2018-05-09T06:45:19.956Z,19.83
2018-05-09T06:47:48.129Z,18.78
2018-05-09T06:50:16.308Z,17.79
2018-05-09T06:52:44.507Z,16.96
2018-05-09T06:55:12.703Z,16.64
2018-05-09T06:57:41.350Z,16.37
2018-05-09T07:00:09.502Z,15.53
2018-05-09T07:02:37.700Z,15.98
2018-05-09T07:05:05.875Z,14.69
2018-05-09T07:07:34.103Z,14.14
2018-05-09T07:10:02.282Z,14.17
2018-05-09T07:12:30.522Z,13.95
2018-05-09T07:14:58.669Z,13.29
2018-05-09T07:17:26.862Z,13.92
2018-05-09T07:19:55.022Z,12.92
2018-05-09T07:22:23.331Z,13.05
2018-05-09T07:24:51.402Z,13.51
2018-05-09T07:27:19.600Z,12.39
2018-05-09T07:29:47.767Z,12.74
2018-05-09T07:32:15.945Z,12.58
2018-05-09T07:34:44.215Z,12.03
2018-05-09T07:37:12.347Z,12.16
2018-05-09T07:39:40.540Z,12.16
2018-05-09T07:42:08.721Z,11.80
2018-05-09T07:44:36.907Z,12.14
2018-05-09T07:47:05.085Z,11.58
2018-05-09T07:49:33.296Z,11.79
2018-05-09T07:52:01.495Z,11.25
2018-05-09T07:54:29.866Z,11.85
2018-05-09T07:56:58.036Z,11.79
2018-05-09T07:59:26.240Z,11.35
2018-05-09T08:01:54.453Z,11.83
2018-05-09T08:04:22.623Z,12.01
2018-05-09T08:06:50.838Z,12.33
2018-05-09T08:09:19.051Z,11.88
2018-05-09T08:11:47.228Z,11.73
2018-05-09T08:14:15.435Z,12.42
2018-05-09T08:16:43.612Z,11.92
2018-05-09T08:19:11.779Z,11.91
2018-05-09T08:21:39.972Z,11.89
2018-05-09T08:24:08.151Z,11.83
2018-05-09T08:26:36.342Z,10.94
2018-05-09T08:29:04.503Z,11.30
2018-05-09T08:31:32.696Z,11.27
2018-05-09T08:34:00.944Z,10.98
2018-05-09T08:36:29.165Z,10.77
2018-05-09T08:38:57.365Z,10.87
2018-05-09T08:41:25.493Z,11.20
2018-05-09T08:43:53.782Z,11.51
2018-05-09T08:46:21.920Z,11.53
2018-05-09T08:48:50.133Z,11.24
2018-05-09T08:51:18.339Z,10.74
2018-05-09T08:53:46.547Z,10.87
2018-05-09T08:56:14.761Z,10.86
2018-05-09T08:58:42.948Z,11.32
2018-05-09T09:01:11.143Z,10.54
2018-05-09T09:03:39.320Z,10.95
2018-05-09T09:06:07.527Z,10.79
2018-05-09T09:08:35.727Z,11.25
2018-05-09T09:11:03.912Z,11.29
2018-05-09T09:13:32.100Z,11.41
2018-05-09T09:16:00.332Z,11.54
2018-05-09T09:18:28.549Z,10.85
2018-05-09T09:20:56.759Z,11.22
2018-05-09T09:23:24.918Z,10.86
2018-05-09T09:25:53.111Z,11.33
2018-05-09T09:28:21.283Z,10.73
2018-05-09T09:30:49.428Z,11.53
2018-05-09T09:33:17.853Z,9.33
2018-05-09T09:35:46.045Z,10.27
2018-05-09T09:38:14.246Z,10.54
2018-05-09T09:40:42.411Z,10.11
2018-05-09T09:43:10.607Z,9.93
2018-05-09T09:45:38.876Z,8.78
2018-05-09T09:48:07.012Z,9.52
2018-05-09T09:50:35.287Z,10.76
2018-05-09T09:53:03.361Z,10.78
2018-05-09T09:55:31.556Z,10.75
2018-05-09T09:57:59.876Z,9.95
2018-05-09T10:00:28.091Z,10.56
2018-05-09T10:02:56.286Z,11.15
2018-05-09T10:05:24.449Z,11.24
2018-05-09T10:07:52.659Z,10.38
2018-05-09T10:10:20.859Z,8.44
2018-05-09T10:12:49.033Z,9.60
2018-05-09T10:15:17.242Z,8.96
2018-05-09T10:17:45.419Z,8.74
2018-05-09T10:20:13.717Z,7.44
2018-05-09T10:22:41.876Z,7.56
2018-05-09T10:25:10.071Z,8.08
2018-05-09T10:27:38.276Z,8.30
2018-05-09T10:30:06.482Z,8.94
2018-05-09T10:32:34.694Z,9.50
2018-05-09T10:35:02.863Z,7.92
2018-05-09T10:37:31.017Z,7.20
2018-05-09T10:39:59.276Z,8.27
2018-05-09T10:42:27.464Z,7.75
2018-05-09T10:44:55.651Z,8.40
2018-05-09T10:47:27.255Z,8.41
2018-05-09T10:49:55.476Z,8.14
2018-05-09T10:52:23.626Z,8.12
2018-05-09T10:54:51.816Z,8.76
2018-05-09T10:57:20.078Z,9.66
2018-05-09T10:59:48.204Z,9.84
2018-05-09T11:02:16.340Z,9.65
2018-05-09T11:04:44.524Z,9.52
2018-05-09T11:07:12.713Z,9.44
2018-05-09T11:09:40.859Z,9.79
2018-05-09T11:12:09.045Z,9.11
2018-05-09T11:14:37.206Z,9.58
2018-05-09T11:17:05.369Z,9.72
2018-05-09T11:19:33.567Z,9.02
2018-05-09T11:22:01.732Z,9.06
2018-05-09T11:24:30.069Z,9.54
2018-05-09T11:26:58.124Z,9.54
2018-05-09T11:29:26.360Z,9.74
2018-05-09T11:31:54.532Z,9.63
2018-05-09T11:34:22.686Z,9.71
2018-05-09T11:36:50.892Z,9.04
2018-05-09T11:39:19.082Z,9.28
2018-05-09T11:41:47.241Z,10.02
2018-05-09T11:44:15.420Z,10.54
2018-05-09T11:46:43.643Z,10.14
2018-05-09T11:49:11.795Z,9.26
2018-05-09T11:51:40.008Z,9.80
2018-05-09T11:54:08.202Z,10.80
2018-05-09T11:56:36.419Z,12.12
2018-05-09T11:59:04.595Z,12.80
2018-05-09T12:01:32.812Z,13.38
2018-05-09T12:04:00.996Z,14.24
2018-05-09T12:06:29.185Z,15.46
2018-05-09T12:08:57.381Z,14.26
2018-05-09T12:11:25.581Z,14.77
2018-05-09T12:13:53.893Z,14.88
2018-05-09T12:16:22.067Z,15.70
2018-05-09T12:18:50.324Z,15.18
2018-05-09T12:21:18.428Z,16.16
2018-05-09T12:23:46.608Z,16.28
2018-05-09T12:26:14.847Z,16.37
2018-05-09T12:28:43.044Z,16.27
2018-05-09T12:31:11.217Z,18.23
2018-05-09T12:33:39.419Z,16.16
2018-05-09T12:36:07.695Z,16.65
2018-05-09T12:38:35.871Z,16.47
2018-05-09T12:41:04.055Z,16.33
2018-05-09T12:43:32.216Z,15.74
2018-05-09T12:46:00.404Z,16.14
2018-05-09T12:48:28.628Z,16.49
2018-05-09T12:50:56.815Z,15.55
2018-05-09T12:53:25.083Z,15.65
2018-05-09T12:55:53.228Z,16.89
2018-05-09T12:58:21.443Z,18.29
2018-05-09T13:00:52.431Z,16.89
2018-05-09T13:03:20.677Z,17.27
2018-05-09T13:05:48.816Z,16.68
2018-05-09T13:08:17.009Z,17.53
2018-05-09T13:10:45.176Z,16.87
2018-05-09T13:13:13.447Z,16.30
2018-05-09T13:15:41.527Z,15.56
2018-05-09T13:18:09.704Z,16.20
2018-05-09T13:20:37.872Z,16.74
2018-05-09T13:23:06.080Z,15.53
2018-05-09T13:25:34.264Z,16.77
2018-05-09T13:28:02.472Z,16.09
2018-05-09T13:30:30.646Z,16.58
2018-05-09T13:32:58.901Z,15.96
2018-05-09T13:35:27.116Z,15.84
2018-05-09T13:37:55.325Z,16.31
2018-05-09T13:40:23.491Z,16.24
2018-05-09T13:42:51.664Z,17.29
2018-05-09T13:45:19.981Z,16.28
2018-05-09T13:47:48.174Z,16.43
2018-05-09T13:50:16.355Z,19.09
2018-05-09T13:52:44.553Z,17.85
2018-05-09T13:55:12.737Z,17.71
2018-05-09T13:57:41.002Z,16.80
2018-05-09T14:00:09.235Z,17.57
2018-05-09T14:02:37.426Z,17.34
2018-05-09T14:05:05.682Z,17.20
2018-05-09T14:07:33.814Z,16.85
2018-05-09T14:10:02.092Z,16.56
2018-05-09T14:12:30.152Z,17.63
2018-05-09T14:14:58.352Z,17.30
2018-05-09T14:17:26.501Z,16.76
2018-05-09T14:19:54.720Z,16.99
2018-05-09T14:22:22.919Z,17.75
2018-05-09T14:24:51.087Z,16.57
2018-05-09T14:27:19.426Z,17.06
2018-05-09T14:29:47.492Z,17.55
2018-05-09T14:32:15.673Z,18.73
2018-05-09T14:34:43.883Z,16.93
2018-05-09T14:37:12.103Z,18.22
2018-05-09T14:39:40.194Z,18.36
2018-05-09T14:42:08.394Z,17.37
2018-05-09T14:44:36.553Z,18.54
2018-05-09T14:47:04.757Z,18.65
2018-05-09T14:49:32.955Z,20.01
2018-05-09T14:52:01.130Z,19.03
2018-05-09T14:54:29.319Z,18.81
2018-05-09T14:56:57.516Z,18.02
2018-05-09T14:59:25.788Z,18.42
2018-05-09T15:01:53.954Z,17.24
2018-05-09T15:04:22.185Z,17.74
2018-05-09T15:06:50.297Z,19.54
2018-05-09T15:09:18.474Z,20.54
2018-05-09T15:11:46.657Z,19.83
2018-05-09T15:14:14.876Z,20.89
2018-05-09T15:16:43.095Z,19.07
2018-05-09T15:19:11.241Z,18.97
2018-05-09T15:21:39.413Z,20.61
2018-05-09T15:24:07.656Z,24.76
2018-05-09T15:26:35.829Z,26.45
2018-05-09T15:29:04.002Z,26.85
2018-05-09T15:31:32.176Z,28.22
2018-05-09T15:34:00.347Z,28.28
2018-05-09T15:36:28.533Z,28.53
2018-05-09T15:38:56.868Z,29.06
2018-05-09T15:41:25.004Z,30.05
2018-05-09T15:43:53.107Z,30.34
2018-05-09T15:46:21.380Z,30.28
2018-05-09T15:48:49.550Z,30.64
2018-05-09T15:51:17.719Z,30.99
2018-05-09T15:53:45.900Z,31.36
2018-05-09T15:56:14.103Z,30.84
2018-05-09T15:58:42.260Z,30.12
2018-05-09T16:01:10.446Z,30.60
2018-05-09T16:03:38.617Z,30.19
2018-05-09T16:06:06.885Z,29.62
2018-05-09T16:08:35.066Z,29.88
2018-05-09T16:11:03.250Z,30.70
2018-05-09T16:13:31.415Z,30.22
2018-05-09T16:15:59.604Z,29.25
2018-05-09T16:18:27.797Z,29.42
2018-05-09T16:20:55.959Z,29.49
2018-05-09T16:23:24.139Z,29.97
2018-05-09T16:25:52.304Z,29.64
2018-05-09T16:28:20.504Z,29.92
2018-05-09T16:30:48.712Z,30.04
2018-05-09T16:33:16.884Z,30.50
2018-05-09T16:35:45.078Z,29.93
2018-05-09T16:38:13.259Z,30.92
2018-05-09T16:40:41.441Z,31.19
2018-05-09T16:43:09.606Z,30.43
2018-05-09T16:45:37.858Z,30.25
2018-05-09T16:48:06.064Z,30.01
2018-05-09T16:50:34.147Z,29.86
2018-05-09T16:53:02.498Z,30.51
2018-05-09T16:55:30.603Z,30.75
2018-05-09T16:57:58.838Z,30.87
2018-05-09T17:00:27.039Z,30.87
2018-05-09T17:02:55.249Z,30.70
2018-05-09T17:05:23.465Z,31.62
2018-05-09T17:07:51.661Z,31.62
2018-05-09T17:10:19.906Z,30.60
2018-05-09T17:12:48.103Z,30.73
2018-05-09T17:15:16.279Z,30.91
2018-05-09T17:17:44.453Z,31.32
2018-05-09T17:20:12.679Z,31.86
2018-05-09T17:22:40.801Z,31.85
2018-05-09T17:25:09.008Z,31.34
2018-05-09T17:27:37.221Z,31.87
2018-05-09T17:30:05.438Z,32.34
2018-05-09T17:32:33.612Z,32.82
2018-05-09T17:35:01.868Z,32.97
2018-05-09T17:37:30.055Z,33.24
2018-05-09T17:39:58.357Z,33.43
2018-05-09T17:42:26.659Z,33.96
2018-05-09T17:44:54.802Z,34.34
2018-05-09T17:47:22.974Z,34.78
2018-05-09T17:49:51.237Z,35.18
2018-05-09T17:52:19.438Z,35.76
2018-05-09T17:54:47.561Z,36.03
2018-05-09T17:57:15.748Z,36.48
2018-05-09T17:59:43.955Z,36.61
2018-05-09T18:02:12.172Z,37.59
2018-05-09T18:04:40.369Z,37.83
2018-05-09T18:07:08.583Z,38.21
2018-05-09T18:09:36.788Z,38.64
2018-05-09T18:12:04.959Z,39.17
2018-05-09T18:14:33.146Z,39.57
2018-05-09T18:17:01.395Z,39.32
2018-05-09T18:19:29.583Z,39.25
2018-05-09T18:21:57.782Z,39.41
2018-05-09T18:24:25.992Z,39.44
2018-05-09T18:26:54.237Z,39.74
2018-05-09T18:29:22.339Z,39.56
2018-05-09T18:31:50.556Z,39.90
2018-05-09T18:34:18.717Z,40.03
2018-05-09T18:36:46.906Z,40.25
2018-05-09T18:39:15.140Z,40.76
2018-05-09T18:41:43.353Z,40.82
2018-05-09T18:44:11.532Z,41.08
2018-05-09T18:46:39.886Z,41.16
2018-05-09T18:49:08.109Z,41.63
2018-05-09T18:51:36.276Z,42.07
2018-05-09T18:54:04.496Z,42.17
2018-05-09T18:56:32.679Z,42.42
2018-05-09T18:59:00.852Z,42.52
2018-05-09T19:01:29.098Z,42.53
2018-05-09T19:03:57.307Z,42.73
2018-05-09T19:06:25.566Z,43.42
2018-05-09T19:08:53.720Z,43.66
2018-05-09T19:11:21.957Z,43.60
2018-05-09T19:13:50.170Z,43.94
2018-05-09T19:16:24.288Z,44.49
2018-05-09T19:18:52.444Z,44.86
2018-05-09T19:21:20.657Z,45.09
2018-05-09T19:23:48.816Z,45.22
2018-05-09T19:26:17.021Z,45.43
2018-05-09T19:28:45.254Z,45.64
2018-05-09T19:31:13.444Z,45.53
2018-05-09T19:33:41.598Z,45.83
2018-05-09T19:36:10.622Z,46.15
2018-05-09T19:38:38.870Z,46.18
2018-05-09T19:41:07.069Z,46.20
2018-05-09T19:43:35.225Z,46.67
2018-05-09T19:46:05.894Z,46.55
2018-05-09T19:48:34.075Z,45.75
2018-05-09T19:51:02.256Z,45.61
2018-05-09T19:53:30.454Z,45.95
2018-05-09T19:55:58.665Z,45.90
2018-05-09T19:58:26.871Z,45.94
2018-05-09T20:00:55.038Z,45.95
2018-05-09T20:03:23.212Z,46.03
2018-05-09T20:05:51.387Z,46.22
2018-05-09T20:08:19.573Z,46.51
2018-05-09T20:10:47.739Z,46.64
2018-05-09T20:13:15.990Z,46.82
2018-05-09T20:15:44.177Z,46.96
2018-05-09T20:18:12.359Z,47.38
2018-05-09T20:20:40.555Z,47.85
2018-05-09T20:23:08.778Z,48.42
2018-05-09T20:25:37.025Z,48.30
2018-05-09T20:28:05.245Z,48.71
2018-05-09T20:30:52.552Z,48.80
2018-05-09T20:33:20.780Z,49.10
2018-05-09T20:35:48.955Z,49.34
2018-05-09T20:38:17.157Z,49.66
2018-05-09T20:40:45.317Z,49.85
2018-05-09T20:43:13.543Z,50.00
2018-05-09T20:45:41.717Z,50.33
2018-05-09T20:48:09.874Z,50.51
2018-05-09T20:50:38.077Z,50.82
2018-05-09T20:53:06.266Z,51.02
2018-05-09T20:55:36.972Z,51.21
2018-05-09T20:58:05.194Z,51.26
2018-05-09T21:00:33.357Z,51.34
2018-05-09T21:03:01.549Z,51.45
2018-05-09T21:05:29.785Z,51.44
2018-05-09T21:07:57.990Z,51.66
2018-05-09T21:10:26.194Z,51.28
2018-05-09T21:12:54.367Z,51.31
2018-05-09T21:15:22.547Z,51.35
2018-05-09T21:17:50.715Z,51.49
2018-05-09T21:20:18.906Z,51.52
2018-05-09T21:22:47.118Z,51.82
2018-05-09T21:25:15.355Z,52.00
2018-05-09T21:27:43.526Z,52.26
2018-05-09T21:30:11.725Z,52.58
2018-05-09T21:32:39.885Z,53.02
2018-05-09T21:35:08.109Z,53.19
2018-05-09T21:37:36.323Z,53.18
2018-05-09T21:40:04.499Z,53.45
2018-05-09T21:42:32.677Z,53.68
2018-05-09T21:45:00.905Z,53.73
2018-05-09T21:47:29.087Z,53.87
2018-05-09T21:49:57.302Z,54.04
2018-05-09T21:52:25.478Z,54.24
2018-05-09T21:54:53.646Z,54.19
2018-05-09T21:57:21.833Z,54.13
2018-05-09T21:59:50.011Z,54.13
2018-05-09T22:02:18.245Z,54.17
2018-05-09T22:04:46.452Z,54.45
2018-05-09T22:07:14.706Z,54.40
2018-05-09T22:09:42.901Z,54.92
2018-05-09T22:12:11.085Z,54.91
2018-05-09T22:14:39.276Z,55.47
2018-05-09T22:17:07.534Z,55.31
2018-05-09T22:19:35.756Z,55.51
2018-05-09T22:22:03.930Z,55.83
2018-05-09T22:24:32.132Z,56.21
2018-05-09T22:27:00.408Z,56.30
2018-05-09T22:29:28.598Z,56.23
2018-05-09T22:31:56.779Z,56.41
2018-05-09T22:34:24.959Z,56.31
2018-05-09T22:36:53.134Z,56.35
2018-05-09T22:39:21.399Z,56.14
2018-05-09T22:41:49.558Z,56.36
2018-05-09T22:44:17.776Z,56.32
2018-05-09T22:46:45.963Z,56.23
2018-05-09T22:49:14.356Z,56.21
2018-05-09T22:51:42.521Z,56.47
2018-05-09T22:54:10.709Z,56.45
2018-05-09T22:56:38.879Z,56.39
2018-05-09T22:59:07.180Z,56.21
2018-05-09T23:01:35.333Z,56.36
2018-05-09T23:04:03.527Z,56.14
2018-05-09T23:06:31.695Z,56.05
2018-05-09T23:08:59.977Z,55.79
2018-05-09T23:11:28.139Z,55.80
2018-05-09T23:13:56.320Z,55.70
2018-05-09T23:16:24.500Z,55.87
2018-05-09T23:18:52.669Z,55.81
2018-05-09T23:21:20.919Z,55.95
2018-05-09T23:23:49.186Z,55.74
2018-05-09T23:26:17.301Z,55.76
2018-05-09T23:28:45.488Z,55.84
2018-05-09T23:31:13.686Z,55.92
2018-05-09T23:33:41.887Z,56.02
2018-05-09T23:36:10.049Z,55.97
2018-05-09T23:38:38.285Z,56.25
2018-05-09T23:41:06.542Z,56.27
2018-05-09T23:43:34.766Z,56.25
2018-05-09T23:46:03.121Z,56.22
2018-05-09T23:48:31.281Z,56.37
2018-05-09T23:50:59.567Z,56.02
2018-05-09T23:53:27.740Z,56.17
2018-05-09T23:55:55.999Z,56.25
2018-05-09T23:58:24.186Z,56.25
